| time (UTC) | temp C | wind direction | speed KPH | gust KPH | rain 1hr cm | rain 24hr cm | rain mn cm | humidity % | barometer mb |
| 20260505125032 | 15 | 5 | 3.2 | 9.7 | 0.00 | 1.32 | 1.32 | 94 | 959.4 |
| 20260505124530 | 15 | 344 | 3.2 | 8.0 | 0.00 | 1.32 | 1.32 | 94 | 959.3 |
| 20260505124032 | 15 | 5 | 3.2 | 14.5 | 0.00 | 1.32 | 1.32 | 94 | 959.1 |
| 20260505123529 | 15 | 5 | 6.4 | 14.5 | 0.00 | 1.32 | 1.32 | 94 | 959.2 |
| 20260505123030 | 15 | 348 | 3.2 | 9.7 | 0.00 | 1.32 | 1.32 | 94 | 959.1 |
| 20260505122531 | 15 | 355 | 4.8 | 14.5 | 0.00 | 1.32 | 1.32 | 94 | 959.0 |
| 20260505122028 | 15 | 355 | 8.0 | 14.5 | 0.00 | 1.32 | 1.32 | 94 | 958.9 |
| 20260505121534 | 15 | 134 | 3.2 | 12.9 | 0.00 | 1.32 | 1.32 | 94 | 958.4 |
| 20260505121028 | 15 | 112 | 4.8 | 12.9 | 0.00 | 1.32 | 1.32 | 94 | 958.1 |
| 20260505120530 | 15 | 145 | 4.8 | 12.9 | 0.03 | 1.32 | 1.32 | 94 | 958.3 |
| 20260505120026 | 15 | 138 | 4.8 | 11.3 | 0.03 | 1.32 | 1.32 | 94 | 958.1 |
| 20260505115524 | 15 | 156 | 3.2 | 11.3 | 0.03 | 1.32 | 1.32 | 94 | 958.0 |
| 20260505115026 | 15 | 134 | 3.2 | 14.5 | 0.03 | 1.32 | 1.32 | 94 | 957.9 |
| 20260505114523 | 15 | 146 | 4.8 | 14.5 | 0.03 | 1.32 | 1.32 | 94 | 958.1 |
| 20260505114023 | 15 | 153 | 4.8 | 12.9 | 0.03 | 1.32 | 1.32 | 94 | 957.8 |
| 20260505113526 | 15 | 156 | 6.4 | 16.1 | 0.05 | 1.32 | 1.32 | 94 | 958.1 |
| 20260505113022 | 15 | 116 | 8.0 | 14.5 | 0.08 | 1.32 | 1.32 | 94 | 957.7 |
| 20260505112521 | 15 | 136 | 6.4 | 16.1 | 0.08 | 1.32 | 1.32 | 94 | 957.9 |
| 20260505112023 | 15 | 153 | 8.0 | 16.1 | 0.10 | 1.32 | 1.32 | 94 | 958.0 |
| 20260505111521 | 15 | 156 | 8.0 | 17.7 | 0.13 | 1.32 | 1.32 | 94 | 957.8 |
| 20260505111023 | 15 | 136 | 9.7 | 17.7 | 0.10 | 1.30 | 1.30 | 94 | 958.0 |
| 20260505110522 | 15 | 152 | 6.4 | 11.3 | 0.15 | 1.30 | 1.30 | 94 | 958.2 |
| 20260505102017 | 15 | 162 | 4.8 | 8.0 | 0.25 | 1.22 | 1.22 | 93 | 959.3 |
| 20260505101517 | 15 | 207 | 3.2 | 6.4 | 0.28 | 1.19 | 1.19 | 93 | 959.2 |
| 20260505101018 | 15 | 233 | 0.0 | 6.4 | 0.30 | 1.19 | 1.19 | 93 | 959.2 |
| 20260505100517 | 15 | 263 | 0.0 | 6.4 | 0.30 | 1.14 | 1.14 | 93 | 959.0 |
| 20260505100019 | 15 | 339 | 1.6 | 9.7 | 0.33 | 1.12 | 1.12 | 92 | 958.8 |
| 20260505095517 | 15 | 286 | 1.6 | 9.7 | 0.38 | 1.12 | 1.12 | 92 | 959.0 |
| 20260505095017 | 15 | 329 | 3.2 | 9.7 | 0.38 | 1.07 | 1.07 | 92 | 958.8 |
| 20260505094516 | 15 | 321 | 4.8 | 9.7 | 0.43 | 1.07 | 1.07 | 92 | 959.1 |
| 20260505094016 | 15 | 286 | 3.2 | 8.0 | 0.51 | 1.04 | 1.04 | 92 | 958.9 |
| 20260505093515 | 15 | 5 | 4.8 | 8.0 | 0.71 | 1.04 | 1.04 | 91 | 958.4 |
| 20260505093015 | 15 | 360 | 1.6 | 8.0 | 0.86 | 0.99 | 0.99 | 91 | 958.4 |
| 20260505092515 | 15 | 280 | 4.8 | 8.0 | 0.89 | 0.99 | 0.99 | 91 | 959.5 |
| 20260505092015 | 15 | 5 | 3.2 | 6.4 | 0.86 | 0.97 | 0.97 | 91 | 958.9 |
| 20260505091515 | 15 | 13 | 1.6 | 4.8 | 0.84 | 0.91 | 0.91 | 91 | 958.7 |
| 20260505091016 | 15 | 323 | 0.0 | 6.4 | 0.81 | 0.86 | 0.86 | 90 | 958.9 |
| 20260505090514 | 15 | 323 | 3.2 | 9.7 | 0.76 | 0.81 | 0.81 | 90 | 959.4 |
| 20260505090033 | 15 | 277 | 3.2 | 11.3 | 0.71 | 0.76 | 0.76 | 89 | 959.6 |
| 20260505085514 | 15 | 327 | 3.2 | 11.3 | 0.71 | 0.71 | 0.71 | 89 | 959.4 |
| 20260505085013 | 15 | 281 | 6.4 | 14.5 | 0.66 | 0.66 | 0.66 | 89 | 959.4 |
| 20260505084513 | 15 | 284 | 3.2 | 17.7 | 0.61 | 0.61 | 0.61 | 88 | 959.5 |
| 20260505084012 | 15 | 288 | 8.0 | 20.9 | 0.51 | 0.51 | 0.51 | 88 | 959.6 |
| 20260505083513 | 15 | 259 | 6.4 | 17.7 | 0.30 | 0.30 | 0.30 | 88 | 959.4 |
| 20260505083010 | 15 | 258 | 4.8 | 11.3 | 0.13 | 0.13 | 0.13 | 87 | 959.1 |
| 20260505082512 | 15 | 277 | 0.0 | 6.4 | 0.10 | 0.10 | 0.10 | 87 | 958.8 |
| 20260505082009 | 15 | 298 | 1.6 | 6.4 | 0.10 | 0.10 | 0.10 | 87 | 959.1 |
| 20260505081509 | 15 | 302 | 3.2 | 6.4 | 0.08 | 0.08 | 0.08 | 86 | 959.1 |
| 20260505081013 | 15 | 273 | 3.2 | 6.4 | 0.05 | 0.05 | 0.05 | 86 | 958.9 |
| 20260505080508 | 15 | 285 | 3.2 | 6.4 | 0.05 | 0.05 | 0.05 | 85 | 958.9 |
| 20260505080106 | 15 | 321 | 1.6 | 4.8 | 0.03 | 0.03 | 0.03 | 85 | 959.0 |
| 20260505075505 | 15 | 315 | 1.6 | 4.8 | 0.00 | 0.00 | 0.00 | 84 | 959.1 |
| 20260505075004 | 15 | 321 | 3.2 | 4.8 | 0.00 | 0.00 | 0.00 | 83 | 959.1 |
| 20260505074504 | 15 | 250 | 1.6 | 4.8 | 0.00 | 0.00 | 0.00 | 83 | 959.0 |
| 20260505074003 | 15 | 152 | 0.0 | 3.2 | 0.00 | 0.00 | 0.00 | 82 | 958.8 |
| 20260505073503 | 15 | 131 | 0.0 | 3.2 | 0.00 | 0.00 | 0.00 | 81 | 958.9 |
| 20260505073002 | 15 | 128 | 0.0 | 3.2 | 0.00 | 0.00 | 0.00 | 80 | 958.3 |
| 20260505072600 | 16 | 129 | 0.0 | 0.0 | 0.00 | 0.00 | 0.00 | 79 | 958.3 |
| 20260505072103 | 16 | 129 | 0.0 | 1.6 | 0.00 | 0.00 | 0.00 | 78 | 958.4 |
| 20260505071558 | 16 | 129 | 0.0 | 1.6 | 0.00 | 0.00 | 0.00 | 78 | 958.7 |
| 20260505071058 | 16 | 129 | 0.0 | 3.2 | 0.00 | 0.00 | 0.00 | 77 | 958.8 |
| 20260505070557 | 16 | 129 | 0.0 | 1.6 | 0.00 | 0.00 | 0.00 | 76 | 958.8 |
| 20260505070056 | 16 | 129 | 0.0 | 4.8 | 0.00 | 0.00 | 0.00 | 75 | 958.8 |
| 20260505065557 | 16 | 129 | 1.6 | 6.4 | 0.00 | 0.00 | 0.00 | 74 | 958.7 |
| 20260505065058 | 16 | 134 | 3.2 | 6.4 | 0.00 | 0.00 | 0.00 | 74 | 958.8 |
| 20260505064555 | 16 | 133 | 3.2 | 6.4 | 0.00 | 0.00 | 0.00 | 74 | 958.8 |
| 20260505064054 | 17 | 128 | 1.6 | 6.4 | 0.00 | 0.00 | 0.00 | 74 | 959.0 |
| 20260505063554 | 16 | 127 | 1.6 | 6.4 | 0.00 | 0.00 | 0.00 | 74 | 959.0 |
| 20260505063054 | 16 | 131 | 3.2 | 6.4 | 0.00 | 0.00 | 0.00 | 74 | 959.0 |
| 20260505062553 | 16 | 134 | 1.6 | 4.8 | 0.00 | 0.00 | 0.00 | 74 | 959.3 |
| 20260505062053 | 16 | 134 | 1.6 | 4.8 | 0.00 | 0.00 | 0.00 | 74 | 959.2 |
| 20260505061553 | 16 | 133 | 1.6 | 4.8 | 0.00 | 0.00 | 0.00 | 74 | 959.5 |
| 20260505061052 | 16 | 133 | 0.0 | 3.2 | 0.00 | 0.00 | 0.00 | 74 | 959.4 |
| 20260505060552 | 16 | 133 | 1.6 | 4.8 | 0.00 | 0.00 | 0.00 | 74 | 959.5 |
| 20260505060052 | 16 | 126 | 0.0 | 4.8 | 0.00 | 0.00 | 0.00 | 74 | 959.6 |
| 20260505055552 | 16 | 123 | 3.2 | 6.4 | 0.00 | 0.00 | 0.00 | 74 | 959.4 |
| 20260505055052 | 16 | 121 | 3.2 | 8.0 | 0.00 | 0.00 | 0.00 | 74 | 959.4 |
| 20260505054556 | 16 | 121 | 4.8 | 8.0 | 0.00 | 0.00 | 0.00 | 74 | 959.4 |
| 20260505054050 | 16 | 121 | 1.6 | 6.4 | 0.00 | 0.00 | 0.00 | 74 | 959.3 |
| 20260505053550 | 16 | 126 | 3.2 | 6.4 | 0.00 | 0.00 | 0.00 | 74 | 959.2 |
| 20260505053049 | 16 | 123 | 3.2 | 6.4 | 0.00 | 0.00 | 0.00 | 74 | 959.2 |
| 20260505052551 | 16 | 118 | 3.2 | 9.7 | 0.00 | 0.00 | 0.00 | 73 | 959.2 |
| 20260505052048 | 16 | 125 | 4.8 | 9.7 | 0.00 | 0.00 | 0.00 | 73 | 959.3 |
| 20260505051547 | 16 | 122 | 4.8 | 8.0 | 0.00 | 0.00 | 0.00 | 73 | 959.4 |
| 20260505051047 | 16 | 118 | 4.8 | 9.7 | 0.00 | 0.00 | 0.00 | 73 | 959.5 |
| 20260505050545 | 17 | 126 | 1.6 | 6.4 | 0.00 | 0.00 | 0.00 | 73 | 959.7 |
| 20260505041544 | 17 | 126 | 3.2 | 8.0 | 0.00 | 0.00 | 0.00 | 70 | 960.0 |
| 20260505041042 | 17 | 112 | 3.2 | 8.0 | 0.00 | 0.00 | 0.00 | 69 | 960.0 |
| 20260505040542 | 17 | 111 | 3.2 | 6.4 | 0.00 | 0.00 | 0.00 | 69 | 960.0 |
| 20260505040042 | 18 | 115 | 3.2 | 8.0 | 0.00 | 0.00 | 0.00 | 69 | 960.0 |
| 20260505035541 | 18 | 120 | 4.8 | 8.0 | 0.00 | 0.00 | 0.00 | 68 | 960.1 |
| 20260505035040 | 18 | 121 | 1.6 | 6.4 | 0.00 | 0.00 | 0.00 | 68 | 960.2 |
| 20260505034540 | 18 | 102 | 3.2 | 6.4 | 0.00 | 0.00 | 0.00 | 67 | 960.3 |
| 20260505034040 | 18 | 132 | 3.2 | 9.7 | 0.00 | 0.00 | 0.00 | 67 | 960.4 |
| 20260505033540 | 18 | 128 | 3.2 | 6.4 | 0.00 | 0.00 | 0.00 | 67 | 960.4 |
| 20260505033042 | 18 | 132 | 1.6 | 8.0 | 0.00 | 0.00 | 0.00 | 67 | 960.4 |
| 20260505032542 | 18 | 127 | 3.2 | 6.4 | 0.00 | 0.00 | 0.00 | 66 | 960.5 |
| 20260505032039 | 18 | 145 | 3.2 | 9.7 | 0.00 | 0.00 | 0.00 | 66 | 960.6 |
| 20260505031552 | 18 | 138 | 3.2 | 9.7 | 0.00 | 0.00 | 0.00 | 66 | 960.6 |
| 20260505031042 | 18 | 129 | 4.8 | 9.7 | 0.00 | 0.00 | 0.00 | 65 | 960.5 |
| 20260505030539 | 19 | 140 | 3.2 | 12.9 | 0.00 | 0.00 | 0.00 | 65 | 960.5 |
| 20260505030041 | 19 | 147 | 4.8 | 12.9 | 0.00 | 0.00 | 0.00 | 65 | 960.5 |
| 20260505025540 | 19 | 137 | 4.8 | 11.3 | 0.00 | 0.00 | 0.00 | 65 | 960.4 |
| 20260505025039 | 19 | 138 | 3.2 | 11.3 | 0.00 | 0.00 | 0.00 | 65 | 960.4 |
| 20260505024547 | 19 | 149 | 4.8 | 11.3 | 0.00 | 0.00 | 0.00 | 65 | 960.4 |
| 20260505024037 | 19 | 149 | 4.8 | 12.9 | 0.00 | 0.00 | 0.00 | 64 | 960.4 |
| 20260505023537 | 19 | 161 | 4.8 | 12.9 | 0.00 | 0.00 | 0.00 | 64 | 960.3 |
| 20260505023042 | 19 | 147 | 4.8 | 12.9 | 0.00 | 0.00 | 0.00 | 64 | 960.1 |
| 20260505022537 | 19 | 161 | 4.8 | 12.9 | 0.00 | 0.00 | 0.00 | 63 | 960.0 |
| 20260505022037 | 19 | 181 | 4.8 | 9.7 | 0.00 | 0.00 | 0.00 | 63 | 960.0 |
| 20260505021537 | 19 | 147 | 3.2 | 11.3 | 0.00 | 0.00 | 0.00 | 63 | 959.8 |
| 20260505021036 | 20 | 142 | 4.8 | 12.9 | 0.00 | 0.00 | 0.00 | 63 | 959.9 |
| 20260505020536 | 20 | 142 | 3.2 | 12.9 | 0.00 | 0.00 | 0.00 | 63 | 959.8 |
| 20260505020035 | 20 | 163 | 4.8 | 11.3 | 0.00 | 0.00 | 0.00 | 62 | 959.7 |
| 20260505015534 | 20 | 168 | 3.2 | 14.5 | 0.00 | 0.00 | 0.00 | 61 | 959.7 |
| 20260505015134 | 20 | 157 | 4.8 | 14.5 | 0.00 | 0.00 | 0.00 | 61 | 959.6 |
| 20260505014551 | 20 | 141 | 4.8 | 12.9 | 0.00 | 0.00 | 0.00 | 61 | 959.5 |
| 20260505014033 | 20 | 184 | 6.4 | 14.5 | 0.00 | 0.00 | 0.00 | 60 | 959.4 |
| 20260505013533 | 20 | 146 | 6.4 | 17.7 | 0.00 | 0.00 | 0.00 | 60 | 959.3 |
| 20260505013033 | 21 | 172 | 9.7 | 22.5 | 0.00 | 0.00 | 0.00 | 59 | 959.4 |
| 20260505012532 | 21 | 136 | 8.0 | 25.7 | 0.00 | 0.00 | 0.00 | 59 | 959.2 |
| 20260505012033 | 21 | 167 | 12.9 | 25.7 | 0.00 | 0.00 | 0.00 | 59 | 959.3 |
| 20260505011536 | 21 | 174 | 9.7 | 17.7 | 0.00 | 0.00 | 0.00 | 59 | 959.2 |
| 20260505011031 | 21 | 167 | 9.7 | 17.7 | 0.00 | 0.00 | 0.00 | 59 | 959.2 |
| 20260505010532 | 21 | 163 | 8.0 | 17.7 | 0.00 | 0.00 | 0.00 | 59 | 959.0 |
| 20260505010031 | 21 | 150 | 6.4 | 14.5 | 0.00 | 0.00 | 0.00 | 59 | 959.1 |
| 20260505005632 | 21 | 157 | 6.4 | 16.1 | 0.00 | 0.00 | 0.00 | 59 | 959.0 |
| 20260505005031 | 21 | 120 | 9.7 | 19.3 | 0.00 | 0.00 | 0.00 | 58 | 958.8 |
| 20260505004531 | 21 | 164 | 6.4 | 19.3 | 0.00 | 0.00 | 0.00 | 58 | 958.8 |
| 20260505004031 | 22 | 144 | 3.2 | 11.3 | 0.00 | 0.00 | 0.00 | 57 | 958.8 |
| 20260505003535 | 22 | 136 | 4.8 | 12.9 | 0.00 | 0.00 | 0.00 | 56 | 958.8 |
| 20260505003030 | 22 | 142 | 3.2 | 16.1 | 0.00 | 0.00 | 0.00 | 55 | 958.7 |
| 20260505002530 | 22 | 146 | 8.0 | 16.1 | 0.00 | 0.00 | 0.00 | 55 | 958.6 |
| 20260505002030 | 22 | 135 | 8.0 | 19.3 | 0.00 | 0.00 | 0.00 | 54 | 958.6 |
| 20260505001530 | 22 | 133 | 9.7 | 19.3 | 0.00 | 0.00 | 0.00 | 54 | 958.7 |
| 20260505001029 | 22 | 142 | 9.7 | 19.3 | 0.00 | 0.00 | 0.00 | 54 | 958.6 |
| 20260505000529 | 22 | 178 | 8.0 | 25.7 | 0.00 | 0.00 | 0.00 | 53 | 958.5 |
| 20260505000029 | 23 | 164 | 11.3 | 24.1 | 0.00 | 0.00 | 0.00 | 53 | 958.4 |
| 20260504235529 | 23 | 155 | 12.9 | 19.3 | 0.00 | 0.00 | 0.00 | 53 | 958.3 |
| 20260504235029 | 23 | 134 | 8.0 | 17.7 | 0.00 | 0.00 | 0.00 | 53 | 958.3 |
| 20260504234528 | 23 | 146 | 8.0 | 16.1 | 0.00 | 0.00 | 0.00 | 52 | 958.4 |
| 20260504234027 | 23 | 165 | 6.4 | 20.9 | 0.00 | 0.00 | 0.00 | 52 | 958.5 |
| 20260504233526 | 23 | 167 | 11.3 | 20.9 | 0.00 | 0.00 | 0.00 | 51 | 958.7 |
| 20260504233028 | 23 | 115 | 9.7 | 17.7 | 0.00 | 0.00 | 0.00 | 51 | 958.8 |
| 20260504232528 | 23 | 136 | 9.7 | 25.7 | 0.00 | 0.00 | 0.00 | 50 | 958.8 |
| 20260504232025 | 23 | 160 | 12.9 | 25.7 | 0.00 | 0.00 | 0.00 | 50 | 958.9 |
| 20260504231525 | 23 | 183 | 9.7 | 17.7 | 0.00 | 0.00 | 0.00 | 50 | 959.0 |
| 20260504231025 | 24 | 180 | 9.7 | 20.9 | 0.00 | 0.00 | 0.00 | 49 | 959.0 |
| 20260504230524 | 24 | 149 | 11.3 | 25.7 | 0.00 | 0.00 | 0.00 | 49 | 959.0 |
| 20260504230024 | 24 | 169 | 8.0 | 17.7 | 0.00 | 0.00 | 0.00 | 48 | 959.1 |
| 20260504225523 | 24 | 140 | 8.0 | 16.1 | 0.00 | 0.00 | 0.00 | 48 | 959.0 |
| 20260504225023 | 25 | 164 | 9.7 | 29.0 | 0.00 | 0.00 | 0.00 | 48 | 959.0 |
| 20260504224532 | 25 | 155 | 9.7 | 25.7 | 0.00 | 0.00 | 0.00 | 47 | 959.0 |
| 20260504224024 | 25 | 192 | 11.3 | 27.4 | 0.00 | 0.00 | 0.00 | 46 | 959.0 |
| 20260504223524 | 25 | 229 | 12.9 | 27.4 | 0.00 | 0.00 | 0.00 | 46 | 959.2 |
| 20260504223023 | 25 | 172 | 9.7 | 19.3 | 0.00 | 0.00 | 0.00 | 45 | 959.1 |
| 20260504222522 | 25 | 182 | 8.0 | 38.6 | 0.00 | 0.00 | 0.00 | 46 | 959.1 |
| 20260504222024 | 25 | 188 | 16.1 | 38.6 | 0.00 | 0.00 | 0.00 | 45 | 959.2 |
| 20260504221523 | 25 | 188 | 11.3 | 25.7 | 0.00 | 0.00 | 0.00 | 46 | 959.2 |
| 20260504221022 | 25 | 155 | 16.1 | 25.7 | 0.00 | 0.00 | 0.00 | 45 | 959.2 |
| 20260504220522 | 25 | 185 | 11.3 | 25.7 | 0.00 | 0.00 | 0.00 | 45 | 959.1 |
| 20260504220021 | 25 | 134 | 11.3 | 29.0 | 0.00 | 0.00 | 0.00 | 45 | 959.2 |
| 20260504215520 | 25 | 142 | 17.7 | 32.2 | 0.00 | 0.00 | 0.00 | 45 | 959.2 |
| 20260504215020 | 26 | 161 | 16.1 | 30.6 | 0.00 | 0.00 | 0.00 | 45 | 959.0 |
| 20260504214525 | 26 | 192 | 14.5 | 35.4 | 0.00 | 0.00 | 0.00 | 45 | 959.2 |
| 20260504214022 | 26 | 217 | 17.7 | 33.8 | 0.00 | 0.00 | 0.00 | 45 | 959.3 |
| 20260504213522 | 26 | 150 | 12.9 | 24.1 | 0.00 | 0.00 | 0.00 | 45 | 959.2 |
| 20260504213022 | 26 | 178 | 9.7 | 24.1 | 0.00 | 0.00 | 0.00 | 43 | 959.2 |
| 20260504212519 | 26 | 161 | 16.1 | 24.1 | 0.00 | 0.00 | 0.00 | 43 | 959.3 |
| 20260504212022 | 26 | 140 | 9.7 | 27.4 | 0.00 | 0.00 | 0.00 | 43 | 959.4 |
| 20260504211521 | 26 | 104 | 12.9 | 25.7 | 0.00 | 0.00 | 0.00 | 43 | 959.4 |
| 20260504211018 | 26 | 192 | 14.5 | 25.7 | 0.00 | 0.00 | 0.00 | 42 | 959.4 |
| 20260504210518 | 26 | 236 | 14.5 | 27.4 | 0.00 | 0.00 | 0.00 | 41 | 959.5 |
| 20260504210031 | 26 | 149 | 14.5 | 27.4 | 0.00 | 0.00 | 0.00 | 42 | 959.5 |
| 20260504205517 | 26 | 186 | 16.1 | 29.0 | 0.00 | 0.00 | 0.00 | 43 | 959.8 |
| 20260504205018 | 26 | 209 | 17.7 | 29.0 | 0.00 | 0.00 | 0.00 | 43 | 959.7 |
| 20260504204528 | 26 | 151 | 14.5 | 29.0 | 0.00 | 0.00 | 0.00 | 43 | 959.5 |
| 20260504204015 | 26 | 178 | 12.9 | 33.8 | 0.00 | 0.00 | 0.00 | 44 | 959.7 |
| 20260504203515 | 26 | 155 | 20.9 | 33.8 | 0.00 | 0.00 | 0.00 | 44 | 959.8 |
| 20260504203021 | 26 | 159 | 17.7 | 35.4 | 0.00 | 0.00 | 0.00 | 43 | 959.9 |
| 20260504202514 | 26 | 198 | 16.1 | 35.4 | 0.00 | 0.00 | 0.00 | 44 | 959.9 |
| 20260504202013 | 26 | 194 | 19.3 | 35.4 | 0.00 | 0.00 | 0.00 | 43 | 960.0 |
| 20260504201513 | 26 | 193 | 20.9 | 37.0 | 0.00 | 0.00 | 0.00 | 43 | 960.0 |
| 20260504201012 | 26 | 220 | 14.5 | 37.0 | 0.00 | 0.00 | 0.00 | 44 | 960.1 |
| 20260504200511 | 26 | 196 | 14.5 | 33.8 | 0.00 | 0.00 | 0.00 | 44 | 960.1 |
| 20260504200010 | 26 | 193 | 12.9 | 37.0 | 0.00 | 0.00 | 0.00 | 44 | 960.1 |
| 20260504195509 | 26 | 153 | 14.5 | 29.0 | 0.00 | 0.00 | 0.00 | 45 | 960.1 |
| 20260504195009 | 26 | 173 | 17.7 | 29.0 | 0.00 | 0.00 | 0.00 | 44 | 960.1 |
| 20260504194509 | 26 | 136 | 16.1 | 29.0 | 0.00 | 0.00 | 0.00 | 44 | 960.3 |
| 20260504194009 | 26 | 193 | 16.1 | 43.5 | 0.00 | 0.00 | 0.00 | 44 | 960.4 |
| 20260504193508 | 26 | 176 | 19.3 | 43.5 | 0.00 | 0.00 | 0.00 | 43 | 960.6 |
| 20260504193007 | 26 | 225 | 11.3 | 35.4 | 0.00 | 0.00 | 0.00 | 45 | 960.5 |
| 20260504192506 | 26 | 191 | 19.3 | 35.4 | 0.00 | 0.00 | 0.00 | 44 | 960.5 |
| 20260504192005 | 26 | 192 | 11.3 | 27.4 | 0.00 | 0.00 | 0.00 | 45 | 960.5 |
| 20260504191505 | 25 | 233 | 14.5 | 38.6 | 0.00 | 0.00 | 0.00 | 45 | 960.6 |
| 20260504191005 | 26 | 214 | 17.7 | 38.6 | 0.00 | 0.00 | 0.00 | 44 | 960.7 |
| 20260504190506 | 25 | 221 | 17.7 | 33.8 | 0.00 | 0.00 | 0.00 | 45 | 960.7 |
| 20260504190004 | 25 | 170 | 17.7 | 35.4 | 0.00 | 0.00 | 0.00 | 45 | 960.7 |
| 20260504185503 | 25 | 166 | 19.3 | 35.4 | 0.00 | 0.00 | 0.00 | 45 | 960.6 |
| 20260504185003 | 25 | 165 | 17.7 | 30.6 | 0.00 | 0.00 | 0.00 | 46 | 960.7 |
| 20260504184502 | 25 | 163 | 14.5 | 37.0 | 0.00 | 0.00 | 0.00 | 45 | 960.8 |
| 20260504184002 | 26 | 185 | 14.5 | 32.2 | 0.00 | 0.00 | 0.00 | 45 | 960.8 |
| 20260504183504 | 26 | 162 | 17.7 | 32.2 | 0.00 | 0.00 | 0.00 | 45 | 960.8 |
| 20260504183005 | 25 | 204 | 17.7 | 30.6 | 0.00 | 0.00 | 0.00 | 44 | 960.9 |
| 20260504182501 | 26 | 220 | 11.3 | 33.8 | 0.00 | 0.00 | 0.00 | 45 | 960.9 |
| 20260504182100 | 25 | 142 | 12.9 | 33.8 | 0.00 | 0.00 | 0.00 | 45 | 960.8 |
| 20260504181603 | 25 | 221 | 12.9 | 35.4 | 0.00 | 0.00 | 0.00 | 46 | 960.9 |
| 20260504181058 | 25 | 227 | 16.1 | 35.4 | 0.00 | 0.00 | 0.00 | 45 | 960.9 |
| 20260504180557 | 25 | 210 | 12.9 | 27.4 | 0.00 | 0.00 | 0.00 | 45 | 961.0 |
| 20260504180115 | 25 | 225 | 17.7 | 35.4 | 0.00 | 0.00 | 0.00 | 45 | 961.0 |
| 20260504175554 | 25 | 219 | 20.9 | 35.4 | 0.00 | 0.00 | 0.00 | 44 | 961.2 |
| 20260504175057 | 25 | 210 | 14.5 | 30.6 | 0.00 | 0.00 | 0.00 | 46 | 961.1 |
| 20260504174553 | 24 | 219 | 20.9 | 30.6 | 0.00 | 0.00 | 0.00 | 45 | 961.2 |
| 20260504174051 | 24 | 207 | 20.9 | 32.2 | 0.00 | 0.00 | 0.00 | 45 | 961.3 |
| 20260504173550 | 25 | 160 | 16.1 | 37.0 | 0.00 | 0.00 | 0.00 | 45 | 961.3 |
| 20260504173102 | 25 | 182 | 14.5 | 37.0 | 0.00 | 0.00 | 0.00 | 45 | 961.3 |
| 20260504172549 | 25 | 196 | 12.9 | 37.0 | 0.00 | 0.00 | 0.00 | 46 | 961.4 |
| 20260504172048 | 25 | 198 | 19.3 | 35.4 | 0.00 | 0.00 | 0.00 | 45 | 961.5 |
| 20260504171548 | 24 | 148 | 12.9 | 38.6 | 0.00 | 0.00 | 0.00 | 46 | 961.5 |
| 20260504171046 | 25 | 213 | 11.3 | 25.7 | 0.00 | 0.00 | 0.00 | 47 | 961.5 |
| 20260504170544 | 24 | 203 | 17.7 | 29.0 | 0.00 | 0.00 | 0.00 | 46 | 961.5 |
| 20260504151012 | 22 | 230 | 12.9 | 24.1 | 0.00 | 0.00 | 0.00 | 49 | 962.6 |
| 20260504150512 | 22 | 198 | 12.9 | 25.7 | 0.00 | 0.00 | 0.00 | 49 | 962.6 |
| 20260504141056 | 20 | 160 | 12.9 | 24.1 | 0.00 | 0.00 | 0.00 | 53 | 963.2 |
| 20260504140555 | 20 | 217 | 12.9 | 22.5 | 0.00 | 0.00 | 0.00 | 52 | 963.2 |
| 20260504130543 | 18 | 153 | 8.0 | 17.7 | 0.00 | 0.00 | 0.00 | 58 | 963.4 |